Time;durP1;ratioP1;P1;durP2;ratioP2;P2;SDS_P1;SDS_P2;PMS_P1;PMS_P2;Temp;Humidity;BMP_temperature;BMP_pressure;BME280_temperature;BME280_humidity;BME280_pressure;Samples;Min_cycle;Max_cycle;Signal;HPM_P1;HPM_P2
2022/01/18 00:00:04;;;;;;;25.13;5.35;;;22.90;99.90;;;;;;5018326;28;20038;-64
2022/01/18 00:02:31;;;;;;;25.08;4.78;;;22.80;99.90;;;;;;5025599;28;20026;-64
2022/01/18 00:04:58;;;;;;;20.40;5.55;;;22.90;99.90;;;;;;5020546;28;20029;-64
2022/01/18 00:07:26;;;;;;;25.80;5.70;;;22.70;99.90;;;;;;5031186;28;20030;-64
2022/01/18 00:09:53;;;;;;;24.10;6.05;;;22.70;99.90;;;;;;5025043;28;20064;-64
2022/01/18 00:15:16;;;;;;;21.70;6.30;;;22.60;99.90;;;;;;5034209;28;20049;-64
2022/01/18 00:17:51;;;;;;;29.15;6.20;;;22.60;99.90;;;;;;5034446;28;20029;-64
2022/01/18 00:20:24;;;;;;;20.85;6.75;;;22.60;99.90;;;;;;5028123;28;20505;-63
2022/01/18 00:22:51;;;;;;;25.08;6.13;;;22.60;99.90;;;;;;5017190;28;20125;-64
2022/01/18 00:25:19;;;;;;;24.08;6.65;;;22.70;99.90;;;;;;5032565;28;20032;-63
2022/01/18 00:27:46;;;;;;;28.48;7.38;;;22.70;99.90;;;;;;5015737;28;20026;-63
2022/01/18 00:30:39;;;;;;;24.73;6.00;;;22.70;99.90;;;;;;5021626;28;20029;-63
2022/01/18 00:35:43;;;;;;;26.58;5.07;;;22.60;99.90;;;;;;5032145;28;20415;-63
2022/01/18 00:38:29;;;;;;;19.55;5.18;;;22.60;99.90;;;;;;5028361;28;20489;-64
2022/01/18 00:40:57;;;;;;;26.90;6.40;;;22.60;99.90;;;;;;5025187;28;20128;-64
2022/01/18 00:43:24;;;;;;;18.80;6.07;;;22.60;99.90;;;;;;5036282;28;20108;-66
2022/01/18 00:45:52;;;;;;;18.35;5.53;;;22.80;99.90;;;;;;5023918;28;20033;-65
2022/01/18 00:48:20;;;;;;;22.95;5.68;;;22.90;99.90;;;;;;5018029;28;20045;-65
2022/01/18 00:50:49;;;;;;;27.75;5.50;;;22.90;99.90;;;;;;5018423;28;20037;-65
2022/01/18 00:53:18;;;;;;;24.50;7.28;;;23.00;99.90;;;;;;5023978;28;20540;-65
2022/01/18 00:56:17;;;;;;;22.33;6.55;;;23.10;99.90;;;;;;5030726;28;20030;-65
2022/01/18 00:58:36;;;;;;;20.77;4.60;;;23.30;99.90;;;;;;5023163;28;20022;-65
2022/01/18 01:01:03;;;;;;;21.23;5.78;;;23.30;99.90;;;;;;5031437;28;20026;-64
2022/01/18 01:03:31;;;;;;;19.08;5.78;;;23.30;99.90;;;;;;5023330;28;20033;-65
2022/01/18 01:05:58;;;;;;;18.88;5.43;;;23.30;99.90;;;;;;5016523;28;20100;-65
2022/01/18 01:08:26;;;;;;;22.23;4.80;;;23.30;99.90;;;;;;5014187;28;20022;-64
2022/01/18 01:10:53;;;;;;;16.67;4.40;;;23.30;99.90;;;;;;5030310;28;20070;-65
2022/01/18 01:13:21;;;;;;;17.98;4.80;;;23.40;99.90;;;;;;5024310;28;20108;-64
2022/01/18 01:18:37;;;;;;;19.10;4.60;;;23.60;99.90;;;;;;5021229;28;20029;-65
2022/01/18 01:32:48;;;;;;;12.73;5.13;;;23.60;99.90;;;;;;5020314;28;20032;-65
2022/01/18 01:35:31;;;;;;;13.60;4.63;;;23.60;99.90;;;;;;5026012;28;20046;-65
2022/01/18 01:43:48;;;;;;;13.82;4.25;;;23.60;99.90;;;;;;5020302;28;20075;-65
2022/01/18 01:46:18;;;;;;;15.07;4.40;;;23.70;99.90;;;;;;5018810;28;20109;-65
2022/01/18 01:48:51;;;;;;;16.77;4.88;;;23.60;99.90;;;;;;5020208;28;20045;-65
2022/01/18 01:51:20;;;;;;;15.20;4.05;;;23.50;99.90;;;;;;5021394;28;20021;-65
2022/01/18 01:53:47;;;;;;;17.77;4.43;;;23.30;99.90;;;;;;5027107;28;20453;-65
2022/01/18 01:56:18;;;;;;;10.15;4.30;;;23.20;99.90;;;;;;5012748;28;20060;-65
2022/01/18 01:58:46;;;;;;;15.05;4.13;;;23.30;99.90;;;;;;5024248;28;20084;-65
2022/01/18 02:01:13;;;;;;;18.77;5.60;;;23.20;99.90;;;;;;5021798;28;20031;-65
2022/01/18 02:03:40;;;;;;;18.50;4.95;;;23.30;99.90;;;;;;5036011;28;20030;-65
2022/01/18 02:06:08;;;;;;;14.88;4.30;;;23.30;99.90;;;;;;5023344;28;20049;-65
2022/01/18 02:08:36;;;;;;;16.27;4.88;;;23.30;99.90;;;;;;5019220;28;20454;-65
2022/01/18 02:11:04;;;;;;;13.82;4.57;;;23.30;99.90;;;;;;5030467;28;20592;-65
2022/01/18 02:13:33;;;;;;;17.20;4.53;;;23.30;99.90;;;;;;5031401;28;20112;-65
2022/01/18 02:24:00;;;;;;;17.00;4.85;;;23.10;99.90;;;;;;5019280;28;20772;-65
2022/01/18 02:26:27;;;;;;;14.00;4.82;;;23.20;99.90;;;;;;5027429;28;20022;-65
2022/01/18 02:28:58;;;;;;;18.00;4.95;;;23.20;99.90;;;;;;5017726;28;20021;-65
2022/01/18 02:31:25;;;;;;;20.10;5.80;;;23.00;99.90;;;;;;5018728;28;20029;-65
2022/01/18 02:33:53;;;;;;;20.58;5.82;;;23.10;99.90;;;;;;5026001;28;20017;-65
2022/01/18 02:36:21;;;;;;;19.17;5.80;;;23.10;99.90;;;;;;5018388;28;20394;-65
2022/01/18 02:38:49;;;;;;;20.55;6.95;;;22.90;99.90;;;;;;5024976;28;20033;-65
2022/01/18 02:41:26;;;;;;;23.55;6.78;;;22.80;99.90;;;;;;5021406;28;20036;-65
2022/01/18 02:43:55;;;;;;;16.88;5.65;;;22.90;99.90;;;;;;5017810;28;20264;-65
2022/01/18 02:46:23;;;;;;;18.73;5.70;;;22.90;99.90;;;;;;5022281;28;20026;-64
2022/01/18 02:48:51;;;;;;;19.15;5.38;;;22.80;99.90;;;;;;5030668;28;20084;-65
2022/01/18 02:51:18;;;;;;;19.88;6.80;;;22.80;99.90;;;;;;5021054;28;20033;-65
2022/01/18 02:54:05;;;;;;;13.65;5.85;;;22.90;99.90;;;;;;5026750;28;20478;-65
2022/01/18 02:56:36;;;;;;;15.20;5.03;;;22.80;99.90;;;;;;5020187;28;20025;-65
2022/01/18 02:59:21;;;;;;;20.40;6.43;;;22.80;99.90;;;;;;5012813;28;20036;-65
2022/01/18 03:04:46;;;;;;;14.73;5.60;;;22.70;99.90;;;;;;5026071;28;20033;-65
2022/01/18 03:07:14;;;;;;;13.10;4.72;;;22.60;99.90;;;;;;5010501;28;20037;-65
2022/01/18 03:09:42;;;;;;;13.77;5.07;;;22.60;99.90;;;;;;5017722;28;20033;-65
2022/01/18 03:12:10;;;;;;;13.15;4.65;;;22.50;99.90;;;;;;5016251;28;20044;-65
2022/01/18 03:14:39;;;;;;;8.85;4.45;;;22.50;99.90;;;;;;5023357;28;20022;-65
2022/01/18 03:17:07;;;;;;;17.95;4.50;;;22.50;99.90;;;;;;5016583;28;20545;-65
2022/01/18 03:19:34;;;;;;;10.65;4.40;;;22.60;99.90;;;;;;5027341;28;20047;-65
2022/01/18 03:22:03;;;;;;;18.52;4.95;;;22.70;99.90;;;;;;5016131;28;20033;-64
2022/01/18 03:25:00;;;;;;;14.50;4.68;;;22.60;99.90;;;;;;5033358;28;20026;-65
2022/01/18 03:30:14;;;;;;;11.40;4.70;;;22.60;99.90;;;;;;5020403;28;20402;-65
2022/01/18 03:32:42;;;;;;;13.05;4.95;;;22.70;99.90;;;;;;5031881;28;20463;-64
2022/01/18 03:35:10;;;;;;;13.52;4.07;;;22.70;99.90;;;;;;5028553;28;20030;-67
2022/01/18 03:37:39;;;;;;;13.18;4.28;;;22.60;99.90;;;;;;5023962;28;20022;-68
2022/01/18 03:40:08;;;;;;;9.45;4.60;;;22.50;99.90;;;;;;5023548;28;20064;-67
2022/01/18 03:42:43;;;;;;;12.57;4.07;;;22.60;99.90;;;;;;5034847;28;20026;-67
2022/01/18 03:45:31;;;;;;;7.80;4.13;;;22.60;99.90;;;;;;5033565;28;20041;-65
2022/01/18 03:48:04;;;;;;;11.50;3.78;;;22.70;99.90;;;;;;5018065;28;20096;-65
2022/01/18 03:50:31;;;;;;;8.05;3.33;;;22.70;99.90;;;;;;5020349;28;20025;-64
2022/01/18 03:52:58;;;;;;;9.30;3.85;;;22.70;99.90;;;;;;5034520;28;20497;-64
2022/01/18 03:55:26;;;;;;;11.15;3.53;;;22.70;99.90;;;;;;5027842;28;20072;-64
2022/01/18 03:57:54;;;;;;;6.93;2.85;;;22.80;99.90;;;;;;5029226;28;20044;-64
2022/01/18 04:00:25;;;;;;;7.38;1.88;;;22.70;99.90;;;;;;5025622;28;20034;-63
2022/01/18 04:02:54;;;;;;;3.28;1.30;;;22.60;99.90;;;;;;5023821;28;20026;-66
2022/01/18 04:05:21;;;;;;;7.50;1.70;;;22.60;99.90;;;;;;5025359;28;20017;-66
2022/01/18 04:07:49;;;;;;;6.60;1.67;;;22.50;99.90;;;;;;5026624;28;20057;-66
2022/01/18 04:10:17;;;;;;;9.45;2.58;;;22.50;99.90;;;;;;5027277;28;20434;-63
2022/01/18 04:12:45;;;;;;;8.90;2.10;;;22.50;99.90;;;;;;5021610;28;20030;-63
2022/01/18 04:15:14;;;;;;;7.82;2.33;;;22.50;99.90;;;;;;5024305;28;21441;-64
2022/01/18 04:28:34;;;;;;;4.38;1.65;;;21.90;99.90;;;;;;5030923;28;20025;-66
2022/01/18 04:31:03;;;;;;;6.65;2.15;;;21.80;99.90;;;;;;5020303;28;20061;-66
2022/01/18 04:33:31;;;;;;;8.20;2.05;;;21.70;99.90;;;;;;5026942;28;20026;-66
2022/01/18 04:35:59;;;;;;;6.88;2.15;;;21.70;99.90;;;;;;5028733;28;20099;-66
2022/01/18 04:38:27;;;;;;;5.07;1.25;;;21.70;99.90;;;;;;5034949;28;20029;-64
2022/01/18 04:41:00;;;;;;;5.78;1.55;;;21.60;99.90;;;;;;5028830;28;20047;-63
2022/01/18 04:44:05;;;;;;;5.10;1.80;;;21.60;99.90;;;;;;5034856;28;20213;-66
2022/01/18 04:49:01;;;;;;;6.13;1.67;;;21.60;99.90;;;;;;5028406;28;20464;-64
2022/01/18 04:51:28;;;;;;;7.68;2.53;;;21.50;99.90;;;;;;5026993;28;20029;-64
2022/01/18 04:53:59;;;;;;;10.07;1.92;;;21.60;99.90;;;;;;5023327;28;20033;-64
2022/01/18 04:59:08;;;;;;;10.43;2.13;;;21.50;99.90;;;;;;5031219;28;20026;-64
2022/01/18 05:01:38;;;;;;;5.85;2.35;;;21.50;99.90;;;;;;5028351;28;20070;-64
2022/01/18 05:04:05;;;;;;;7.35;1.60;;;21.50;99.90;;;;;;5035273;28;20025;-64
2022/01/18 05:06:34;;;;;;;4.45;1.67;;;21.50;99.90;;;;;;5026749;28;20029;-64
2022/01/18 05:09:07;;;;;;;4.57;1.42;;;21.40;99.90;;;;;;5016951;28;20175;-64
2022/01/18 05:11:47;;;;;;;5.70;1.00;;;21.40;99.90;;;;;;5023808;28;20030;-65
2022/01/18 05:14:26;;;;;;;5.60;1.55;;;21.40;99.90;;;;;;5029584;28;20033;-64
2022/01/18 05:17:01;;;;;;;5.88;1.50;;;21.40;99.90;;;;;;5023959;28;20026;-64
2022/01/18 05:24:34;;;;;;;6.30;1.58;;;21.50;99.90;;;;;;5018055;28;20044;-64
2022/01/18 05:27:03;;;;;;;5.68;1.33;;;21.50;99.90;;;;;;5023439;28;20026;-64
2022/01/18 05:29:30;;;;;;;7.65;1.85;;;21.50;99.90;;;;;;5013310;28;20364;-64
2022/01/18 05:31:58;;;;;;;6.82;1.67;;;21.50;99.90;;;;;;5031226;28;20521;-65
2022/01/18 05:34:25;;;;;;;7.22;1.73;;;21.40;99.90;;;;;;5028439;28;20022;-65
2022/01/18 05:36:52;;;;;;;7.28;1.50;;;21.40;99.90;;;;;;5013718;28;20038;-64
2022/01/18 05:39:21;;;;;;;8.40;1.73;;;21.40;99.90;;;;;;5031102;28;20025;-65
2022/01/18 05:41:49;;;;;;;14.45;2.97;;;21.40;99.90;;;;;;5032178;28;20025;-65
2022/01/18 05:44:16;;;;;;;5.35;1.88;;;21.30;99.90;;;;;;5018891;28;20037;-65
2022/01/18 05:46:44;;;;;;;7.82;1.98;;;21.40;99.90;;;;;;5024256;28;20514;-64
2022/01/18 05:49:11;;;;;;;9.45;2.13;;;21.40;99.90;;;;;;5031219;28;20494;-65
2022/01/18 05:51:41;;;;;;;8.15;2.03;;;21.30;99.90;;;;;;5032753;28;20116;-65
2022/01/18 05:54:09;;;;;;;9.98;2.47;;;21.30;99.90;;;;;;5032091;28;20052;-65
2022/01/18 05:56:36;;;;;;;11.18;3.05;;;21.30;99.90;;;;;;5020811;28;20887;-65
2022/01/18 05:59:06;;;;;;;6.47;1.90;;;21.30;99.90;;;;;;5022002;28;20029;-65
2022/01/18 06:01:37;;;;;;;11.95;3.25;;;21.20;99.90;;;;;;5019650;28;20303;-65
2022/01/18 06:04:12;;;;;;;9.65;3.08;;;21.30;99.90;;;;;;5019649;28;20038;-64
2022/01/18 06:06:53;;;;;;;8.10;2.95;;;21.30;99.90;;;;;;5024168;28;20034;-64
2022/01/18 06:09:22;;;;;;;11.65;3.10;;;21.30;99.90;;;;;;5020011;28;20414;-64
2022/01/18 06:11:50;;;;;;;7.90;2.63;;;21.20;99.90;;;;;;5016589;28;20475;-64
2022/01/18 06:14:18;;;;;;;7.32;2.08;;;21.20;99.90;;;;;;5013290;28;20025;-64
2022/01/18 06:16:45;;;;;;;11.20;1.90;;;21.20;99.90;;;;;;5015813;28;20549;-64
2022/01/18 06:19:13;;;;;;;5.25;1.92;;;21.30;99.90;;;;;;5019349;28;20481;-64
2022/01/18 06:21:41;;;;;;;9.00;2.40;;;21.20;99.90;;;;;;5015899;28;20053;-64
2022/01/18 06:24:09;;;;;;;6.03;2.38;;;21.20;99.90;;;;;;5020199;28;20033;-64
2022/01/18 06:26:37;;;;;;;9.98;2.60;;;21.20;99.90;;;;;;5020813;28;20026;-64
2022/01/18 06:29:04;;;;;;;5.95;2.22;;;21.20;99.90;;;;;;5017431;28;20490;-64
2022/01/18 06:31:32;;;;;;;6.30;2.30;;;21.20;99.90;;;;;;5025956;28;20036;-64
2022/01/18 06:33:59;;;;;;;7.38;2.40;;;21.10;99.90;;;;;;5016889;28;20058;-65
2022/01/18 06:36:27;;;;;;;3.97;1.83;;;21.20;99.90;;;;;;5018684;28;20079;-65
2022/01/18 06:38:54;;;;;;;5.57;2.00;;;21.20;99.90;;;;;;5025930;28;20102;-65
2022/01/18 06:41:21;;;;;;;8.82;2.05;;;21.20;99.90;;;;;;5028308;28;20048;-67
2022/01/18 06:43:49;;;;;;;9.60;2.63;;;21.10;99.90;;;;;;5022766;28;20025;-65
2022/01/18 06:46:16;;;;;;;7.28;2.67;;;21.10;99.90;;;;;;5013105;28;20025;-65
2022/01/18 06:48:44;;;;;;;8.07;3.13;;;21.00;99.90;;;;;;5014668;28;20064;-64
2022/01/18 06:51:12;;;;;;;8.25;2.83;;;21.00;99.90;;;;;;5029394;28;20021;-65
2022/01/18 06:53:45;;;;;;;12.02;2.90;;;21.00;99.90;;;;;;5027590;28;20033;-64
2022/01/18 06:56:16;;;;;;;6.75;2.42;;;21.00;99.90;;;;;;5018570;28;20025;-64
2022/01/18 06:58:44;;;;;;;6.93;2.30;;;21.00;99.90;;;;;;5015115;28;20486;-65
2022/01/18 07:01:13;;;;;;;8.07;2.72;;;21.00;99.90;;;;;;5026549;28;20108;-64
2022/01/18 07:03:42;;;;;;;8.82;2.85;;;21.00;99.90;;;;;;5023258;28;20044;-64
2022/01/18 07:06:09;;;;;;;7.88;3.05;;;21.00;99.90;;;;;;5015617;28;20037;-65
2022/01/18 07:08:37;;;;;;;14.73;3.05;;;21.00;99.90;;;;;;5013248;28;20430;-65
2022/01/18 07:11:06;;;;;;;7.65;3.13;;;21.00;99.90;;;;;;5016457;28;20026;-65
2022/01/18 07:13:34;;;;;;;8.82;3.67;;;20.90;99.90;;;;;;5021136;28;20079;-65
2022/01/18 07:16:01;;;;;;;12.50;3.15;;;20.90;99.90;;;;;;5017336;28;20038;-65
2022/01/18 07:18:29;;;;;;;11.38;3.30;;;20.90;99.90;;;;;;5018752;28;20080;-66
2022/01/18 07:20:56;;;;;;;8.40;3.67;;;21.00;99.90;;;;;;5019099;28;20104;-65
2022/01/18 07:23:24;;;;;;;13.55;4.35;;;21.00;99.90;;;;;;5020985;28;20037;-64
2022/01/18 07:25:52;;;;;;;12.73;4.32;;;20.90;99.90;;;;;;5014889;28;20033;-64
2022/01/18 07:28:20;;;;;;;15.55;5.40;;;20.90;99.90;;;;;;5021029;28;20022;-64
2022/01/18 07:30:49;;;;;;;14.27;6.75;;;20.90;99.90;;;;;;5011612;28;20129;-65
2022/01/18 07:33:18;;;;;;;14.35;5.70;;;20.90;99.90;;;;;;5015326;28;20041;-64
2022/01/18 07:35:46;;;;;;;20.33;7.25;;;20.90;99.90;;;;;;5017621;28;20041;-64
2022/01/18 07:38:16;;;;;;;17.15;8.02;;;20.90;99.90;;;;;;5015056;28;20032;-64
2022/01/18 07:40:46;;;;;;;19.50;9.07;;;21.00;99.90;;;;;;5018745;28;20038;-64
2022/01/18 07:43:18;;;;;;;25.88;9.82;;;21.00;99.90;;;;;;5014522;28;20772;-64
2022/01/18 07:45:50;;;;;;;22.60;10.57;;;21.00;99.90;;;;;;5020334;28;20152;-64
2022/01/18 07:48:23;;;;;;;27.77;12.13;;;21.00;99.90;;;;;;5021953;28;20038;-64
2022/01/18 07:50:51;;;;;;;28.05;12.30;;;21.00;99.90;;;;;;5024775;28;20033;-64
2022/01/18 07:53:20;;;;;;;30.17;12.85;;;21.00;99.90;;;;;;5020178;28;20022;-64
2022/01/18 07:55:47;;;;;;;30.60;13.30;;;21.00;99.90;;;;;;5019686;28;20139;-64
2022/01/18 07:58:15;;;;;;;29.02;12.77;;;21.00;99.90;;;;;;5013501;28;20030;-64
2022/01/18 08:00:43;;;;;;;34.10;14.32;;;21.00;99.90;;;;;;5018372;28;20035;-65
2022/01/18 08:03:11;;;;;;;30.80;14.30;;;21.00;99.90;;;;;;5032134;28;20029;-64
2022/01/18 08:05:38;;;;;;;36.47;15.32;;;21.00;99.90;;;;;;5018627;28;20374;-64
2022/01/18 08:08:06;;;;;;;44.85;18.20;;;21.00;99.90;;;;;;5015863;28;20105;-64
2022/01/18 08:10:34;;;;;;;41.67;16.63;;;21.00;99.90;;;;;;5023327;28;20112;-65
2022/01/18 08:13:03;;;;;;;40.53;16.77;;;21.10;99.90;;;;;;5026636;28;20026;-64
2022/01/18 08:15:39;;;;;;;46.85;17.30;;;21.00;99.90;;;;;;5015336;28;20394;-64
2022/01/18 08:18:14;;;;;;;47.78;17.92;;;21.00;99.90;;;;;;5017457;28;20040;-66
2022/01/18 08:20:42;;;;;;;53.78;19.38;;;21.10;99.90;;;;;;5027974;28;20102;-65
2022/01/18 08:23:10;;;;;;;46.53;17.98;;;21.00;99.90;;;;;;5022275;28;20022;-65
2022/01/18 08:25:39;;;;;;;46.55;18.25;;;21.10;99.90;;;;;;5026039;28;20056;-65
2022/01/18 08:28:06;;;;;;;44.75;18.15;;;21.00;99.90;;;;;;5014471;28;20014;-64
2022/01/18 08:30:34;;;;;;;45.17;18.13;;;21.10;99.90;;;;;;5019221;28;20026;-64
2022/01/18 08:33:01;;;;;;;53.92;20.75;;;21.00;99.90;;;;;;5016663;28;20018;-65
2022/01/18 08:35:29;;;;;;;48.50;20.85;;;21.00;99.90;;;;;;5023664;28;20017;-65
2022/01/18 08:37:56;;;;;;;47.85;19.45;;;21.00;99.90;;;;;;5031890;28;20033;-64
2022/01/18 08:40:24;;;;;;;48.72;22.08;;;21.00;99.90;;;;;;5023816;28;20032;-64
2022/01/18 08:42:51;;;;;;;42.10;19.75;;;21.00;99.90;;;;;;5024270;28;20021;-64
2022/01/18 08:45:18;;;;;;;44.85;20.33;;;21.00;99.90;;;;;;5021974;28;20041;-64
2022/01/18 08:47:46;;;;;;;47.83;21.25;;;21.00;99.90;;;;;;5024347;28;20107;-66
2022/01/18 08:50:13;;;;;;;50.85;21.45;;;21.00;99.90;;;;;;5027669;28;20044;-64
2022/01/18 08:52:41;;;;;;;43.55;20.63;;;21.00;99.90;;;;;;5018244;28;20112;-65
2022/01/18 08:55:09;;;;;;;47.53;21.08;;;21.00;99.90;;;;;;5014562;28;20033;-65
2022/01/18 08:57:36;;;;;;;49.67;23.65;;;21.10;99.90;;;;;;5019290;28;20022;-64
2022/01/18 09:00:08;;;;;;;45.83;20.95;;;21.00;99.90;;;;;;5019862;28;20033;-64
2022/01/18 09:02:35;;;;;;;49.05;22.17;;;20.90;99.90;;;;;;5022510;28;20063;-65
2022/01/18 09:05:04;;;;;;;41.08;21.45;;;21.00;99.90;;;;;;5023891;28;20021;-64
2022/01/18 09:07:33;;;;;;;42.60;21.08;;;20.90;99.90;;;;;;5021662;28;20049;-64
2022/01/18 09:10:06;;;;;;;54.03;23.00;;;21.00;99.90;;;;;;5021370;28;20030;-64
2022/01/18 09:12:35;;;;;;;44.70;22.37;;;20.90;99.90;;;;;;5033762;28;20434;-64
2022/01/18 09:15:05;;;;;;;51.70;20.70;;;20.90;99.90;;;;;;5019131;28;20275;-64
2022/01/18 09:17:34;;;;;;;34.88;20.23;;;20.80;99.90;;;;;;5033727;28;20037;-64
2022/01/18 09:20:06;;;;;;;48.30;21.30;;;20.80;99.90;;;;;;5029393;28;20048;-64
2022/01/18 09:22:38;;;;;;;44.78;21.77;;;20.80;99.90;;;;;;5019244;28;20030;-64
2022/01/18 09:25:13;;;;;;;44.10;21.63;;;20.80;99.90;;;;;;5014447;28;20142;-64
2022/01/18 09:27:41;;;;;;;38.70;19.65;;;20.80;99.90;;;;;;5032530;28;20044;-64
2022/01/18 09:30:09;;;;;;;48.50;21.27;;;20.80;99.90;;;;;;5021804;28;20056;-64
2022/01/18 09:32:36;;;;;;;48.83;19.92;;;20.70;99.90;;;;;;5028456;28;20032;-64
2022/01/18 09:35:06;;;;;;;38.65;19.40;;;20.70;99.90;;;;;;5019551;28;20038;-64
2022/01/18 09:37:34;;;;;;;40.83;18.48;;;20.70;99.90;;;;;;5029292;28;20039;-63
2022/01/18 09:40:02;;;;;;;37.70;18.88;;;20.60;99.90;;;;;;5028838;28;20032;-64
2022/01/18 09:42:38;;;;;;;47.40;20.65;;;20.60;99.90;;;;;;5024220;28;20030;-64
2022/01/18 09:45:08;;;;;;;43.05;18.70;;;20.60;99.90;;;;;;5014564;28;20034;-64
2022/01/18 09:47:40;;;;;;;39.85;19.02;;;20.60;99.90;;;;;;5014821;28;20568;-64
2022/01/18 09:50:09;;;;;;;41.30;18.45;;;20.60;99.90;;;;;;5029574;28;20038;-64
2022/01/18 09:52:37;;;;;;;46.40;19.25;;;20.60;99.90;;;;;;5029707;28;20021;-64
2022/01/18 09:55:07;;;;;;;49.80;18.83;;;20.60;99.90;;;;;;5016055;28;20034;-64
2022/01/18 09:57:38;;;;;;;44.10;18.55;;;20.60;99.90;;;;;;5018286;28;20033;-64
2022/01/18 10:00:09;;;;;;;42.10;18.70;;;20.60;99.90;;;;;;5028976;28;20045;-64
2022/01/18 10:02:36;;;;;;;39.88;18.13;;;20.60;99.90;;;;;;5030796;28;20397;-64
2022/01/18 10:05:18;;;;;;;35.35;16.30;;;20.50;99.90;;;;;;5022417;28;20510;-64
2022/01/18 10:07:54;;;;;;;44.35;19.67;;;20.50;99.90;;;;;;5016705;28;20036;-64
2022/01/18 10:10:21;;;;;;;39.33;16.13;;;20.60;99.90;;;;;;5023516;28;20053;-64
2022/01/18 10:12:58;;;;;;;40.20;17.25;;;20.60;99.90;;;;;;5024272;28;20033;-64
2022/01/18 10:15:26;;;;;;;38.90;17.63;;;20.60;99.90;;;;;;5013094;28;20073;-64
2022/01/18 10:18:04;;;;;;;40.53;17.73;;;20.60;99.90;;;;;;5012797;28;20033;-66
2022/01/18 10:20:31;;;;;;;46.45;17.75;;;20.60;99.90;;;;;;5023715;28;20485;-65
2022/01/18 10:23:00;;;;;;;39.83;17.67;;;20.50;99.90;;;;;;5022807;28;20025;-65
2022/01/18 10:25:34;;;;;;;40.88;16.65;;;20.60;99.90;;;;;;5029917;28;20563;-65
2022/01/18 10:28:01;;;;;;;33.00;16.40;;;20.50;99.90;;;;;;5026949;28;20432;-66
2022/01/18 10:30:39;;;;;;;39.80;15.52;;;20.50;99.90;;;;;;5012642;28;20057;-65
2022/01/18 10:33:12;;;;;;;40.05;14.43;;;20.40;99.90;;;;;;5013455;28;20092;-66
2022/01/18 10:36:12;;;;;;;46.65;17.17;;;20.40;99.90;;;;;;5024982;28;20469;-66
2022/01/18 10:38:41;;;;;;;36.15;16.23;;;20.40;99.90;;;;;;5027927;28;20502;-65
2022/01/18 10:41:34;;;;;;;36.25;15.77;;;20.40;99.90;;;;;;5015214;28;21030;-65
2022/01/18 10:44:09;;;;;;;32.85;13.95;;;20.40;99.90;;;;;;5015368;28;20036;-65
2022/01/18 10:46:42;;;;;;;37.17;15.88;;;20.40;99.90;;;;;;5027160;28;20513;-65
2022/01/18 10:49:10;;;;;;;40.92;15.82;;;20.40;99.90;;;;;;5022109;28;20049;-65
2022/01/18 10:51:43;;;;;;;33.28;13.30;;;20.30;99.90;;;;;;5020765;28;20021;-65
2022/01/18 10:54:11;;;;;;;36.30;14.75;;;20.30;99.90;;;;;;5022189;28;20029;-65
2022/01/18 10:56:44;;;;;;;39.35;16.27;;;20.30;99.90;;;;;;5031509;28;20037;-65
2022/01/18 10:59:22;;;;;;;35.80;13.73;;;20.30;99.90;;;;;;5029570;28;20436;-65
2022/01/18 11:02:13;;;;;;;33.70;14.45;;;20.30;99.90;;;;;;5013517;28;20471;-65
2022/01/18 11:04:43;;;;;;;34.95;13.65;;;20.20;99.90;;;;;;5013943;28;20056;-65
2022/01/18 11:07:11;;;;;;;40.35;13.80;;;20.20;99.90;;;;;;5012848;28;20018;-65
2022/01/18 11:09:39;;;;;;;36.75;12.98;;;20.20;99.90;;;;;;5012322;28;20415;-65
2022/01/18 11:12:08;;;;;;;49.85;16.42;;;20.30;99.90;;;;;;5013682;28;20079;-65
2022/01/18 11:14:38;;;;;;;40.72;14.05;;;20.20;99.90;;;;;;5014731;28;20470;-65
2022/01/18 11:17:08;;;;;;;43.58;14.15;;;20.20;99.90;;;;;;5012487;28;20080;-65
2022/01/18 11:19:38;;;;;;;46.55;16.25;;;20.20;99.90;;;;;;5017680;28;20417;-65
2022/01/18 11:22:10;;;;;;;34.80;12.65;;;20.20;99.90;;;;;;5031598;28;20444;-65
2022/01/18 11:24:40;;;;;;;39.08;12.05;;;20.20;99.90;;;;;;5030382;28;20394;-65
2022/01/18 11:27:12;;;;;;;38.50;12.13;;;20.20;99.90;;;;;;5029697;28;20104;-65
2022/01/18 11:29:41;;;;;;;41.90;13.65;;;20.20;99.90;;;;;;5022390;28;20071;-65
2022/01/18 11:32:10;;;;;;;44.97;15.05;;;20.20;99.90;;;;;;5027491;28;20026;-65
2022/01/18 11:34:49;;;;;;;40.83;12.13;;;20.20;99.90;;;;;;5026908;28;20025;-65
2022/01/18 11:37:33;;;;;;;38.75;11.82;;;20.20;99.90;;;;;;5029964;28;20401;-65
2022/01/18 11:40:08;;;;;;;36.65;11.00;;;20.20;99.90;;;;;;5024309;28;20033;-65
2022/01/18 11:42:53;;;;;;;48.97;11.73;;;20.20;99.90;;;;;;5027466;28;20112;-65
2022/01/18 11:45:27;;;;;;;33.88;10.27;;;20.20;99.90;;;;;;5018455;28;20549;-65
2022/01/18 11:48:16;;;;;;;28.73;10.68;;;20.20;99.90;;;;;;5020672;28;20057;-65
2022/01/18 11:51:15;;;;;;;48.35;13.05;;;20.20;99.90;;;;;;5021398;28;20049;-65
2022/01/18 11:53:54;;;;;;;38.83;10.27;;;20.30;99.90;;;;;;5032079;28;20034;-65
2022/01/18 11:56:41;;;;;;;41.53;10.38;;;20.30;99.90;;;;;;5016278;28;20078;-65
2022/01/18 11:59:26;;;;;;;38.22;9.85;;;20.30;99.90;;;;;;5027200;28;20029;-65
2022/01/18 12:01:58;;;;;;;31.05;9.52;;;20.30;99.90;;;;;;5015959;28;20185;-65
2022/01/18 12:04:54;;;;;;;43.25;10.82;;;20.30;99.90;;;;;;5018345;28;20033;-65
2022/01/18 12:07:37;;;;;;;34.33;10.82;;;20.30;99.90;;;;;;5015908;28;20026;-65
2022/01/18 12:10:20;;;;;;;36.28;8.27;;;20.40;99.90;;;;;;5024160;28;20498;-65
2022/01/18 12:12:52;;;;;;;32.00;9.57;;;20.40;99.90;;;;;;5035249;28;20032;-65
2022/01/18 12:15:19;;;;;;;30.92;8.32;;;20.40;99.90;;;;;;5027236;28;20279;-65
2022/01/18 12:18:01;;;;;;;31.77;9.82;;;20.40;99.90;;;;;;5020037;28;20351;-65
2022/01/18 12:20:35;;;;;;;33.60;9.13;;;20.40;99.90;;;;;;5020913;28;20022;-65
2022/01/18 12:23:25;;;;;;;30.07;8.87;;;20.40;99.90;;;;;;5025079;28;20048;-65
2022/01/18 12:34:46;;;;;;;37.55;10.32;;;20.40;99.90;;;;;;5024093;28;20036;-65
2022/01/18 12:37:26;;;;;;;35.73;10.03;;;20.40;99.90;;;;;;5031828;28;20029;-65
2022/01/18 12:39:54;;;;;;;32.72;8.88;;;20.30;99.90;;;;;;5028830;28;20413;-65
2022/01/18 12:45:19;;;;;;;47.50;10.52;;;20.30;99.90;;;;;;5027959;28;20497;-65
2022/01/18 12:47:48;;;;;;;36.35;9.88;;;20.30;99.90;;;;;;5016300;28;20487;-65
2022/01/18 12:50:18;;;;;;;40.60;10.20;;;20.40;99.90;;;;;;5032158;28;20088;-65
2022/01/18 12:53:05;;;;;;;38.45;9.65;;;20.40;99.90;;;;;;5034438;28;20092;-65
2022/01/18 12:55:47;;;;;;;35.72;10.15;;;20.40;99.90;;;;;;5030641;28;20441;-66
2022/01/18 12:58:25;;;;;;;38.28;10.65;;;20.40;99.90;;;;;;5014454;28;20065;-65
2022/01/18 13:00:55;;;;;;;28.85;8.85;;;20.40;99.90;;;;;;5030339;28;20033;-65
2022/01/18 13:03:32;;;;;;;35.28;9.07;;;20.40;99.90;;;;;;5032777;28;20018;-65
2022/01/18 13:06:03;;;;;;;24.60;8.20;;;20.40;99.90;;;;;;5022740;28;20029;-65
2022/01/18 13:08:50;;;;;;;31.98;8.40;;;20.50;99.90;;;;;;5015083;28;20033;-65
2022/01/18 13:11:24;;;;;;;29.10;7.80;;;20.50;99.90;;;;;;5022823;28;20028;-65
2022/01/18 13:14:13;;;;;;;35.00;8.35;;;20.60;99.90;;;;;;5019808;28;20108;-65
2022/01/18 13:25:10;;;;;;;31.13;6.50;;;20.50;99.90;;;;;;5024085;28;20120;-65
2022/01/18 13:27:48;;;;;;;23.80;7.07;;;20.50;99.90;;;;;;5025142;28;20026;-65
2022/01/18 13:30:27;;;;;;;25.30;6.60;;;20.50;99.90;;;;;;5020953;28;20360;-65
2022/01/18 13:32:58;;;;;;;27.13;6.15;;;20.60;99.90;;;;;;5026003;28;20021;-65
2022/01/18 13:35:32;;;;;;;28.77;6.55;;;20.50;99.90;;;;;;5023004;28;20061;-65
2022/01/18 13:38:03;;;;;;;27.33;6.18;;;20.50;99.90;;;;;;5031797;28;20115;-65
2022/01/18 13:40:35;;;;;;;26.38;6.25;;;20.50;99.90;;;;;;5026862;28;20040;-65
2022/01/18 13:43:11;;;;;;;23.15;6.85;;;20.60;99.90;;;;;;5032513;28;20164;-65
2022/01/18 13:45:43;;;;;;;26.27;6.03;;;20.60;99.90;;;;;;5018853;28;20030;-65
2022/01/18 13:48:12;;;;;;;17.63;4.63;;;20.60;99.90;;;;;;5018001;28;20060;-65
2022/01/18 13:50:43;;;;;;;22.08;5.93;;;20.60;99.90;;;;;;5020098;28;20032;-65
2022/01/18 13:53:20;;;;;;;30.30;6.57;;;20.60;99.90;;;;;;5014090;28;20046;-65
2022/01/18 13:55:59;;;;;;;22.02;5.80;;;20.60;99.90;;;;;;5019442;28;20025;-65
2022/01/18 13:58:40;;;;;;;21.33;5.80;;;20.60;99.90;;;;;;5029849;28;20030;-66
2022/01/18 14:01:10;;;;;;;18.60;5.03;;;20.60;99.90;;;;;;5031396;28;20022;-65
2022/01/18 14:03:41;;;;;;;23.13;6.90;;;20.60;99.90;;;;;;5021577;28;20083;-66
2022/01/18 14:06:11;;;;;;;23.83;6.03;;;20.60;99.90;;;;;;5015248;28;20363;-65
2022/01/18 14:08:41;;;;;;;25.98;6.60;;;20.60;99.90;;;;;;5030839;28;20482;-66
2022/01/18 14:11:11;;;;;;;19.38;5.38;;;20.70;99.90;;;;;;5026869;28;20065;-66
2022/01/18 14:13:39;;;;;;;18.90;4.78;;;20.70;99.90;;;;;;5031265;28;20024;-66
2022/01/18 14:16:29;;;;;;;24.08;6.03;;;20.70;99.90;;;;;;5025300;28;20041;-66